Rechercher aéroport 
image banner adimage banner adimage banner ad
image banner ad

EDCV - Pasewalk

Situé à , Germany

ICAO - EDCV, IATA -

Données fournies par Airmate  

Information générale

Coordonnées: N53°30'20" E13°56'54"
Élévation : 72 feet MSL.
Variation magnétique : 4.0000° East
Voir autres Aéroports à Mecklenburg-Vorpommern

Données opérationnelles

Special qualification required
Heure actuelle UTC:
Heure actuelle locale:
Météo à : EDAH - Heringsdorf ( 44 km )
TAF: TAF EDAH 151400Z 1515/1524 03007KT CAVOK BECMG 1517/1519 VRB01KT
Voir NOTAMs / SUP AIP / TFR affectant cet aéroport [VIEW]
Fréquences de communication: [VIEW]

Pistes:

Identifiant RWYQFULongueur (ft)Largeur (ft)SurfaceLDA (ft)
0990°295375ASPH2953
27270°295375ASPH2953

Coordonnées de l'aéroport

Adresse: Germany

Vue satellite de EDCV